sensor_id;sensor_type;location;lat;lon;timestamp;temperature;humidity
67186;HTU21D;54116;53.518;49.398;2023-09-18T00:02:05;-7.27;118.99
67186;HTU21D;54116;53.518;49.398;2023-09-18T00:04:31;-7.32;118.99
67186;HTU21D;54116;53.518;49.398;2023-09-18T00:06:57;-7.34;118.99
67186;HTU21D;54116;53.518;49.398;2023-09-18T00:09:23;-7.29;118.99
67186;HTU21D;54116;53.518;49.398;2023-09-18T00:11:49;-7.30;118.99
67186;HTU21D;54116;53.518;49.398;2023-09-18T00:14:15;-7.26;118.99
67186;HTU21D;54116;53.518;49.398;2023-09-18T00:16:41;-7.31;118.99
67186;HTU21D;54116;53.518;49.398;2023-09-18T00:19:07;-7.26;118.99
67186;HTU21D;54116;53.518;49.398;2023-09-18T00:21:34;-7.23;118.99
67186;HTU21D;54116;53.518;49.398;2023-09-18T00:24:00;-7.26;118.99
67186;HTU21D;54116;53.518;49.398;2023-09-18T00:26:26;-7.25;118.99
67186;HTU21D;54116;53.518;49.398;2023-09-18T00:28:52;-7.25;118.99
67186;HTU21D;54116;53.518;49.398;2023-09-18T00:31:19;-7.32;118.99
67186;HTU21D;54116;53.518;49.398;2023-09-18T00:33:45;-7.40;118.99
67186;HTU21D;54116;53.518;49.398;2023-09-18T00:36:11;-7.41;118.99
67186;HTU21D;54116;53.518;49.398;2023-09-18T00:38:38;-7.39;118.99
67186;HTU21D;54116;53.518;49.398;2023-09-18T00:41:04;-7.47;118.99
67186;HTU21D;54116;53.518;49.398;2023-09-18T00:43:30;-7.54;118.99
67186;HTU21D;54116;53.518;49.398;2023-09-18T00:45:56;-7.59;118.99
67186;HTU21D;54116;53.518;49.398;2023-09-18T00:48:22;-7.53;118.99
67186;HTU21D;54116;53.518;49.398;2023-09-18T00:50:48;-7.56;118.99
67186;HTU21D;54116;53.518;49.398;2023-09-18T00:53:18;-7.54;118.99
67186;HTU21D;54116;53.518;49.398;2023-09-18T00:55:46;-7.52;118.99
67186;HTU21D;54116;53.518;49.398;2023-09-18T00:58:12;-7.55;118.99
67186;HTU21D;54116;53.518;49.398;2023-09-18T01:00:39;-7.49;118.99
67186;HTU21D;54116;53.518;49.398;2023-09-18T01:03:06;-7.47;118.99
67186;HTU21D;54116;53.518;49.398;2023-09-18T01:05:33;-7.53;118.99
67186;HTU21D;54116;53.518;49.398;2023-09-18T01:07:59;-7.57;118.99
67186;HTU21D;54116;53.518;49.398;2023-09-18T01:10:30;-7.56;118.99
67186;HTU21D;54116;53.518;49.398;2023-09-18T01:13:13;-7.57;118.99
67186;HTU21D;54116;53.518;49.398;2023-09-18T01:15:55;-7.64;118.99
67186;HTU21D;54116;53.518;49.398;2023-09-18T01:18:23;-7.65;118.99
67186;HTU21D;54116;53.518;49.398;2023-09-18T01:20:50;-7.68;118.99
67186;HTU21D;54116;53.518;49.398;2023-09-18T01:23:16;-7.72;118.99
67186;HTU21D;54116;53.518;49.398;2023-09-18T01:25:42;-7.68;118.99
67186;HTU21D;54116;53.518;49.398;2023-09-18T01:28:08;-7.72;118.99
67186;HTU21D;54116;53.518;49.398;2023-09-18T01:30:34;-7.69;118.99
67186;HTU21D;54116;53.518;49.398;2023-09-18T01:33:02;-7.69;118.99
67186;HTU21D;54116;53.518;49.398;2023-09-18T01:35:29;-7.70;118.99
67186;HTU21D;54116;53.518;49.398;2023-09-18T01:37:57;-7.69;118.99
67186;HTU21D;54116;53.518;49.398;2023-09-18T01:40:24;-7.64;118.99
67186;HTU21D;54116;53.518;49.398;2023-09-18T01:42:52;-7.71;118.99
67186;HTU21D;54116;53.518;49.398;2023-09-18T01:45:18;-7.71;118.99
67186;HTU21D;54116;53.518;49.398;2023-09-18T01:47:45;-7.69;118.99
67186;HTU21D;54116;53.518;49.398;2023-09-18T01:50:12;-7.63;118.99
67186;HTU21D;54116;53.518;49.398;2023-09-18T01:52:38;-7.67;118.99
67186;HTU21D;54116;53.518;49.398;2023-09-18T01:55:05;-7.68;118.99
67186;HTU21D;54116;53.518;49.398;2023-09-18T01:57:31;-7.53;118.99
67186;HTU21D;54116;53.518;49.398;2023-09-18T01:59:57;-7.49;118.99
67186;HTU21D;54116;53.518;49.398;2023-09-18T02:02:24;-7.48;118.99
67186;HTU21D;54116;53.518;49.398;2023-09-18T02:04:50;-7.50;118.99
67186;HTU21D;54116;53.518;49.398;2023-09-18T02:07:16;-7.57;118.99
67186;HTU21D;54116;53.518;49.398;2023-09-18T02:09:42;-7.62;118.99
67186;HTU21D;54116;53.518;49.398;2023-09-18T02:12:08;-7.69;118.99
67186;HTU21D;54116;53.518;49.398;2023-09-18T02:14:34;-7.64;118.99
67186;HTU21D;54116;53.518;49.398;2023-09-18T02:17:00;-7.59;118.99
67186;HTU21D;54116;53.518;49.398;2023-09-18T02:19:26;-7.60;118.99
67186;HTU21D;54116;53.518;49.398;2023-09-18T02:21:52;-7.57;118.99
67186;HTU21D;54116;53.518;49.398;2023-09-18T02:24:18;-7.62;118.99
67186;HTU21D;54116;53.518;49.398;2023-09-18T02:26:45;-7.66;118.99
67186;HTU21D;54116;53.518;49.398;2023-09-18T02:29:11;-7.74;118.99
67186;HTU21D;54116;53.518;49.398;2023-09-18T02:31:39;-7.72;118.99
67186;HTU21D;54116;53.518;49.398;2023-09-18T02:34:06;-7.69;118.99
67186;HTU21D;54116;53.518;49.398;2023-09-18T02:36:33;-7.75;118.99
67186;HTU21D;54116;53.518;49.398;2023-09-18T02:38:59;-7.68;118.99
67186;HTU21D;54116;53.518;49.398;2023-09-18T02:41:26;-7.67;118.99
67186;HTU21D;54116;53.518;49.398;2023-09-18T02:43:52;-7.52;118.99
67186;HTU21D;54116;53.518;49.398;2023-09-18T02:46:18;-7.49;118.99
67186;HTU21D;54116;53.518;49.398;2023-09-18T02:48:44;-7.56;118.99
67186;HTU21D;54116;53.518;49.398;2023-09-18T02:51:10;-7.48;118.99
67186;HTU21D;54116;53.518;49.398;2023-09-18T02:53:36;-7.44;118.99
67186;HTU21D;54116;53.518;49.398;2023-09-18T02:56:02;-7.39;118.99
67186;HTU21D;54116;53.518;49.398;2023-09-18T02:58:28;-7.37;118.99
67186;HTU21D;54116;53.518;49.398;2023-09-18T03:00:57;-7.11;118.99
67186;HTU21D;54116;53.518;49.398;2023-09-18T03:03:28;-7.03;118.99
67186;HTU21D;54116;53.518;49.398;2023-09-18T03:06:03;-6.96;118.99
67186;HTU21D;54116;53.518;49.398;2023-09-18T03:08:30;-7.05;118.99
67186;HTU21D;54116;53.518;49.398;2023-09-18T03:10:56;-7.13;118.99
67186;HTU21D;54116;53.518;49.398;2023-09-18T03:13:22;-7.19;118.99
67186;HTU21D;54116;53.518;49.398;2023-09-18T03:15:49;-7.21;118.99
67186;HTU21D;54116;53.518;49.398;2023-09-18T03:18:15;-7.16;118.99
67186;HTU21D;54116;53.518;49.398;2023-09-18T03:20:41;-7.01;118.99
67186;HTU21D;54116;53.518;49.398;2023-09-18T03:23:07;-6.96;118.99
67186;HTU21D;54116;53.518;49.398;2023-09-18T03:25:33;-6.98;118.99
67186;HTU21D;54116;53.518;49.398;2023-09-18T03:27:59;-6.90;118.99
67186;HTU21D;54116;53.518;49.398;2023-09-18T03:30:26;-6.79;118.99
67186;HTU21D;54116;53.518;49.398;2023-09-18T03:32:52;-6.71;118.99
67186;HTU21D;54116;53.518;49.398;2023-09-18T03:35:20;-6.38;118.99
67186;HTU21D;54116;53.518;49.398;2023-09-18T03:37:53;-6.29;118.99
67186;HTU21D;54116;53.518;49.398;2023-09-18T03:40:22;-6.18;118.99
67186;HTU21D;54116;53.518;49.398;2023-09-18T03:42:48;-6.16;118.99
67186;HTU21D;54116;53.518;49.398;2023-09-18T03:45:15;-6.20;118.99
67186;HTU21D;54116;53.518;49.398;2023-09-18T03:47:43;-6.03;118.99
67186;HTU21D;54116;53.518;49.398;2023-09-18T03:50:09;-6.04;118.99
67186;HTU21D;54116;53.518;49.398;2023-09-18T03:52:37;-5.92;118.99
67186;HTU21D;54116;53.518;49.398;2023-09-18T03:55:04;-5.90;118.99
67186;HTU21D;54116;53.518;49.398;2023-09-18T03:57:31;-5.89;118.99
67186;HTU21D;54116;53.518;49.398;2023-09-18T03:59:57;-5.15;118.99
67186;HTU21D;54116;53.518;49.398;2023-09-18T04:02:26;-4.04;118.99
67186;HTU21D;54116;53.518;49.398;2023-09-18T04:04:53;-3.77;118.99
67186;HTU21D;54116;53.518;49.398;2023-09-18T04:07:20;-3.12;118.99
67186;HTU21D;54116;53.518;49.398;2023-09-18T04:09:46;-1.93;118.99
67186;HTU21D;54116;53.518;49.398;2023-09-18T04:12:13;-0.38;118.99
67186;HTU21D;54116;53.518;49.398;2023-09-18T04:14:39;0.75;118.99
67186;HTU21D;54116;53.518;49.398;2023-09-18T04:17:05;1.55;118.99
67186;HTU21D;54116;53.518;49.398;2023-09-18T04:19:31;2.13;118.99
67186;HTU21D;54116;53.518;49.398;2023-09-18T04:21:57;2.56;118.99
67186;HTU21D;54116;53.518;49.398;2023-09-18T04:24:26;2.97;118.99
67186;HTU21D;54116;53.518;49.398;2023-09-18T04:26:52;3.09;118.99
67186;HTU21D;54116;53.518;49.398;2023-09-18T04:29:19;3.40;118.99
67186;HTU21D;54116;53.518;49.398;2023-09-18T04:31:45;3.72;118.99
67186;HTU21D;54116;53.518;49.398;2023-09-18T04:34:11;3.59;118.99
67186;HTU21D;54116;53.518;49.398;2023-09-18T04:36:37;3.28;118.99
67186;HTU21D;54116;53.518;49.398;2023-09-18T04:39:04;3.04;118.99
67186;HTU21D;54116;53.518;49.398;2023-09-18T04:41:31;2.70;118.99
67186;HTU21D;54116;53.518;49.398;2023-09-18T04:43:58;2.67;118.99
67186;HTU21D;54116;53.518;49.398;2023-09-18T04:46:24;3.06;118.99
67186;HTU21D;54116;53.518;49.398;2023-09-18T04:48:51;3.29;118.99
67186;HTU21D;54116;53.518;49.398;2023-09-18T04:51:17;2.85;118.99
67186;HTU21D;54116;53.518;49.398;2023-09-18T04:53:43;2.54;118.99
67186;HTU21D;54116;53.518;49.398;2023-09-18T04:56:09;2.27;118.99
67186;HTU21D;54116;53.518;49.398;2023-09-18T04:58:38;2.52;118.99
67186;HTU21D;54116;53.518;49.398;2023-09-18T05:01:05;2.40;118.99
67186;HTU21D;54116;53.518;49.398;2023-09-18T05:03:34;2.56;118.99
67186;HTU21D;54116;53.518;49.398;2023-09-18T05:06:01;3.04;118.99
67186;HTU21D;54116;53.518;49.398;2023-09-18T05:08:28;3.36;118.99
67186;HTU21D;54116;53.518;49.398;2023-09-18T05:10:54;3.43;118.99
67186;HTU21D;54116;53.518;49.398;2023-09-18T05:13:21;2.96;118.99
67186;HTU21D;54116;53.518;49.398;2023-09-18T05:15:47;2.34;118.99
67186;HTU21D;54116;53.518;49.398;2023-09-18T05:18:13;1.02;118.99
67186;HTU21D;54116;53.518;49.398;2023-09-18T05:20:39;0.27;118.99
67186;HTU21D;54116;53.518;49.398;2023-09-18T05:23:05;0.84;118.99
67186;HTU21D;54116;53.518;49.398;2023-09-18T05:25:33;1.54;118.99
67186;HTU21D;54116;53.518;49.398;2023-09-18T05:28:02;2.10;118.99
67186;HTU21D;54116;53.518;49.398;2023-09-18T05:30:35;2.78;118.99
67186;HTU21D;54116;53.518;49.398;2023-09-18T05:33:05;2.79;118.99
67186;HTU21D;54116;53.518;49.398;2023-09-18T05:37:58;2.86;118.99
67186;HTU21D;54116;53.518;49.398;2023-09-18T05:40:26;3.01;118.99
67186;HTU21D;54116;53.518;49.398;2023-09-18T05:42:56;2.60;118.99
67186;HTU21D;54116;53.518;49.398;2023-09-18T05:45:22;2.45;118.99
67186;HTU21D;54116;53.518;49.398;2023-09-18T05:47:49;2.40;118.99
67186;HTU21D;54116;53.518;49.398;2023-09-18T05:50:16;2.49;118.99
67186;HTU21D;54116;53.518;49.398;2023-09-18T05:52:43;2.56;118.99
67186;HTU21D;54116;53.518;49.398;2023-09-18T05:55:10;2.96;118.99
67186;HTU21D;54116;53.518;49.398;2023-09-18T05:57:36;3.08;118.99
67186;HTU21D;54116;53.518;49.398;2023-09-18T06:00:03;2.62;118.99
67186;HTU21D;54116;53.518;49.398;2023-09-18T06:02:30;2.91;118.99
67186;HTU21D;54116;53.518;49.398;2023-09-18T06:04:58;2.95;118.99
67186;HTU21D;54116;53.518;49.398;2023-09-18T06:07:26;3.11;118.99
67186;HTU21D;54116;53.518;49.398;2023-09-18T06:09:53;3.24;118.99
67186;HTU21D;54116;53.518;49.398;2023-09-18T06:12:19;2.90;118.99
67186;HTU21D;54116;53.518;49.398;2023-09-18T06:14:47;2.29;118.99
67186;HTU21D;54116;53.518;49.398;2023-09-18T06:17:14;1.93;118.99
67186;HTU21D;54116;53.518;49.398;2023-09-18T06:19:41;2.15;118.99
67186;HTU21D;54116;53.518;49.398;2023-09-18T06:22:07;2.24;118.99
67186;HTU21D;54116;53.518;49.398;2023-09-18T06:24:37;2.16;118.99
67186;HTU21D;54116;53.518;49.398;2023-09-18T06:27:04;2.03;118.99
67186;HTU21D;54116;53.518;49.398;2023-09-18T06:29:33;1.49;118.99
67186;HTU21D;54116;53.518;49.398;2023-09-18T06:32:00;0.99;118.99
67186;HTU21D;54116;53.518;49.398;2023-09-18T06:34:27;0.36;118.99
67186;HTU21D;54116;53.518;49.398;2023-09-18T06:36:54;0.21;118.99
67186;HTU21D;54116;53.518;49.398;2023-09-18T06:39:20;-0.13;118.99
67186;HTU21D;54116;53.518;49.398;2023-09-18T06:41:48;-0.26;118.99
67186;HTU21D;54116;53.518;49.398;2023-09-18T06:44:14;-0.25;118.99
67186;HTU21D;54116;53.518;49.398;2023-09-18T06:46:41;-0.14;118.99
67186;HTU21D;54116;53.518;49.398;2023-09-18T06:49:07;-0.12;118.99
67186;HTU21D;54116;53.518;49.398;2023-09-18T06:51:33;-0.10;118.99
67186;HTU21D;54116;53.518;49.398;2023-09-18T06:53:59;-0.22;118.99
67186;HTU21D;54116;53.518;49.398;2023-09-18T06:56:28;-0.40;118.99
67186;HTU21D;54116;53.518;49.398;2023-09-18T06:58:55;-0.28;118.99
67186;HTU21D;54116;53.518;49.398;2023-09-18T07:01:22;-0.23;118.99
67186;HTU21D;54116;53.518;49.398;2023-09-18T07:03:50;-0.32;118.99
67186;HTU21D;54116;53.518;49.398;2023-09-18T07:06:17;-0.45;118.99
67186;HTU21D;54116;53.518;49.398;2023-09-18T07:08:48;-0.45;118.99
67186;HTU21D;54116;53.518;49.398;2023-09-18T07:11:18;-0.30;118.99
67186;HTU21D;54116;53.518;49.398;2023-09-18T07:13:45;-0.22;118.99
67186;HTU21D;54116;53.518;49.398;2023-09-18T07:16:11;-0.56;118.99
67186;HTU21D;54116;53.518;49.398;2023-09-18T07:18:37;-0.69;118.99
67186;HTU21D;54116;53.518;49.398;2023-09-18T07:21:04;-0.58;118.99
67186;HTU21D;54116;53.518;49.398;2023-09-18T07:23:30;-0.38;118.99
67186;HTU21D;54116;53.518;49.398;2023-09-18T07:25:57;-0.39;118.99
67186;HTU21D;54116;53.518;49.398;2023-09-18T07:28:25;-0.23;118.99
67186;HTU21D;54116;53.518;49.398;2023-09-18T07:30:52;-0.30;118.99
67186;HTU21D;54116;53.518;49.398;2023-09-18T07:33:18;-0.42;118.99
67186;HTU21D;54116;53.518;49.398;2023-09-18T07:35:50;-0.57;118.99
67186;HTU21D;54116;53.518;49.398;2023-09-18T07:38:19;-0.54;118.99
67186;HTU21D;54116;53.518;49.398;2023-09-18T07:40:46;-0.32;118.99
67186;HTU21D;54116;53.518;49.398;2023-09-18T07:43:13;-0.21;118.99
67186;HTU21D;54116;53.518;49.398;2023-09-18T07:45:40;-0.25;118.99
67186;HTU21D;54116;53.518;49.398;2023-09-18T07:48:17;-0.11;118.99
67186;HTU21D;54116;53.518;49.398;2023-09-18T07:50:46;-0.12;118.99
67186;HTU21D;54116;53.518;49.398;2023-09-18T07:53:12;-0.40;118.99
67186;HTU21D;54116;53.518;49.398;2023-09-18T07:55:38;-0.37;118.99
67186;HTU21D;54116;53.518;49.398;2023-09-18T07:58:04;-0.42;118.99
67186;HTU21D;54116;53.518;49.398;2023-09-18T08:00:30;-0.13;118.99
67186;HTU21D;54116;53.518;49.398;2023-09-18T08:02:59;0.01;118.99
67186;HTU21D;54116;53.518;49.398;2023-09-18T08:05:27;-0.19;118.99
67186;HTU21D;54116;53.518;49.398;2023-09-18T08:07:54;-0.25;118.99
67186;HTU21D;54116;53.518;49.398;2023-09-18T08:10:25;0.01;118.99
67186;HTU21D;54116;53.518;49.398;2023-09-18T08:12:52;0.07;118.99
67186;HTU21D;54116;53.518;49.398;2023-09-18T08:15:19;0.22;118.99
67186;HTU21D;54116;53.518;49.398;2023-09-18T08:17:48;0.21;118.99
67186;HTU21D;54116;53.518;49.398;2023-09-18T08:20:15;0.29;118.99
67186;HTU21D;54116;53.518;49.398;2023-09-18T08:22:43;0.14;118.99
67186;HTU21D;54116;53.518;49.398;2023-09-18T08:25:10;-0.01;118.99
67186;HTU21D;54116;53.518;49.398;2023-09-18T08:27:38;0.14;118.99
67186;HTU21D;54116;53.518;49.398;2023-09-18T08:30:11;0.13;118.99
67186;HTU21D;54116;53.518;49.398;2023-09-18T08:32:38;0.23;118.99
67186;HTU21D;54116;53.518;49.398;2023-09-18T08:35:05;0.12;118.99
67186;HTU21D;54116;53.518;49.398;2023-09-18T08:37:33;-0.22;118.99
67186;HTU21D;54116;53.518;49.398;2023-09-18T08:39:59;-0.49;118.99
67186;HTU21D;54116;53.518;49.398;2023-09-18T08:42:38;-0.52;118.99
67186;HTU21D;54116;53.518;49.398;2023-09-18T08:45:09;-0.36;118.99
67186;HTU21D;54116;53.518;49.398;2023-09-18T08:47:39;-0.36;118.99
67186;HTU21D;54116;53.518;49.398;2023-09-18T08:50:08;-0.46;118.99
67186;HTU21D;54116;53.518;49.398;2023-09-18T08:52:36;-0.61;118.99
67186;HTU21D;54116;53.518;49.398;2023-09-18T08:55:05;-0.67;118.99
67186;HTU21D;54116;53.518;49.398;2023-09-18T08:57:32;-0.81;118.99
67186;HTU21D;54116;53.518;49.398;2023-09-18T08:59:59;-0.77;118.99
67186;HTU21D;54116;53.518;49.398;2023-09-18T09:02:32;-0.75;118.99
67186;HTU21D;54116;53.518;49.398;2023-09-18T09:04:58;-0.64;118.99
67186;HTU21D;54116;53.518;49.398;2023-09-18T09:07:26;-0.51;118.99
67186;HTU21D;54116;53.518;49.398;2023-09-18T09:09:56;-0.43;118.99
67186;HTU21D;54116;53.518;49.398;2023-09-18T09:15:28;-0.20;118.99
67186;HTU21D;54116;53.518;49.398;2023-09-18T09:18:02;0.12;118.99
67186;HTU21D;54116;53.518;49.398;2023-09-18T09:20:29;0.02;118.99
67186;HTU21D;54116;53.518;49.398;2023-09-18T09:23:00;-0.15;118.99
67186;HTU21D;54116;53.518;49.398;2023-09-18T09:25:29;-0.21;118.99
67186;HTU21D;54116;53.518;49.398;2023-09-18T09:28:04;-0.07;118.99
67186;HTU21D;54116;53.518;49.398;2023-09-18T09:30:32;-0.00;118.99
67186;HTU21D;54116;53.518;49.398;2023-09-18T09:32:59;-0.15;118.99
67186;HTU21D;54116;53.518;49.398;2023-09-18T09:35:38;-0.22;118.99
67186;HTU21D;54116;53.518;49.398;2023-09-18T09:38:08;-0.31;118.99
67186;HTU21D;54116;53.518;49.398;2023-09-18T09:40:41;-0.35;118.99
67186;HTU21D;54116;53.518;49.398;2023-09-18T09:43:09;-0.37;118.99
67186;HTU21D;54116;53.518;49.398;2023-09-18T09:45:37;-0.50;118.99
67186;HTU21D;54116;53.518;49.398;2023-09-18T09:48:05;-0.40;118.99
67186;HTU21D;54116;53.518;49.398;2023-09-18T09:50:33;-0.30;118.99
67186;HTU21D;54116;53.518;49.398;2023-09-18T09:53:00;-0.15;118.99
67186;HTU21D;54116;53.518;49.398;2023-09-18T09:55:27;-0.21;118.99
67186;HTU21D;54116;53.518;49.398;2023-09-18T09:58:02;-0.23;118.99
67186;HTU21D;54116;53.518;49.398;2023-09-18T10:00:46;-0.26;118.99
67186;HTU21D;54116;53.518;49.398;2023-09-18T10:03:18;-0.22;118.99
67186;HTU21D;54116;53.518;49.398;2023-09-18T10:05:46;-0.02;118.99
67186;HTU21D;54116;53.518;49.398;2023-09-18T10:08:17;0.06;118.99
67186;HTU21D;54116;53.518;49.398;2023-09-18T10:10:54;0.22;118.99
67186;HTU21D;54116;53.518;49.398;2023-09-18T10:13:59;0.32;118.99
67186;HTU21D;54116;53.518;49.398;2023-09-18T10:16:26;0.38;118.99
67186;HTU21D;54116;53.518;49.398;2023-09-18T10:19:14;0.49;118.99
67186;HTU21D;54116;53.518;49.398;2023-09-18T10:24:28;0.55;118.99
67186;HTU21D;54116;53.518;49.398;2023-09-18T10:26:59;0.58;118.99
67186;HTU21D;54116;53.518;49.398;2023-09-18T10:29:28;0.42;118.99
67186;HTU21D;54116;53.518;49.398;2023-09-18T10:31:56;0.49;118.99
67186;HTU21D;54116;53.518;49.398;2023-09-18T10:34:23;0.62;118.99
67186;HTU21D;54116;53.518;49.398;2023-09-18T10:36:52;0.65;118.99
67186;HTU21D;54116;53.518;49.398;2023-09-18T10:39:20;0.64;118.99
67186;HTU21D;54116;53.518;49.398;2023-09-18T10:41:52;0.66;118.99
67186;HTU21D;54116;53.518;49.398;2023-09-18T10:44:20;0.54;118.99
67186;HTU21D;54116;53.518;49.398;2023-09-18T10:46:48;0.45;118.99
67186;HTU21D;54116;53.518;49.398;2023-09-18T10:49:15;0.55;118.99
67186;HTU21D;54116;53.518;49.398;2023-09-18T10:51:42;0.60;118.99
67186;HTU21D;54116;53.518;49.398;2023-09-18T10:54:10;0.60;118.99
67186;HTU21D;54116;53.518;49.398;2023-09-18T10:56:37;0.48;118.99
67186;HTU21D;54116;53.518;49.398;2023-09-18T10:59:07;0.35;118.99
67186;HTU21D;54116;53.518;49.398;2023-09-18T11:01:37;0.37;118.99
67186;HTU21D;54116;53.518;49.398;2023-09-18T11:04:05;0.33;118.99
67186;HTU21D;54116;53.518;49.398;2023-09-18T11:09:24;0.31;118.99
67186;HTU21D;54116;53.518;49.398;2023-09-18T11:14:58;0.53;118.99
67186;HTU21D;54116;53.518;49.398;2023-09-18T11:17:39;0.52;118.99
67186;HTU21D;54116;53.518;49.398;2023-09-18T11:20:16;0.50;118.99
67186;HTU21D;54116;53.518;49.398;2023-09-18T11:23:09;0.27;118.99
67186;HTU21D;54116;53.518;49.398;2023-09-18T11:25:37;0.29;118.99
67186;HTU21D;54116;53.518;49.398;2023-09-18T11:28:08;0.39;118.99
67186;HTU21D;54116;53.518;49.398;2023-09-18T11:30:36;0.37;118.99
67186;HTU21D;54116;53.518;49.398;2023-09-18T11:33:06;0.30;118.99
67186;HTU21D;54116;53.518;49.398;2023-09-18T11:35:38;0.07;118.99
67186;HTU21D;54116;53.518;49.398;2023-09-18T11:38:19;0.20;118.99
67186;HTU21D;54116;53.518;49.398;2023-09-18T11:40:49;0.49;118.99
67186;HTU21D;54116;53.518;49.398;2023-09-18T11:43:26;0.60;118.99
67186;HTU21D;54116;53.518;49.398;2023-09-18T11:45:59;0.66;118.99
67186;HTU21D;54116;53.518;49.398;2023-09-18T11:48:28;0.79;118.99
67186;HTU21D;54116;53.518;49.398;2023-09-18T11:51:02;0.69;118.99
67186;HTU21D;54116;53.518;49.398;2023-09-18T11:53:35;0.69;118.99
67186;HTU21D;54116;53.518;49.398;2023-09-18T11:56:12;0.81;118.99
67186;HTU21D;54116;53.518;49.398;2023-09-18T11:58:51;0.76;118.99
67186;HTU21D;54116;53.518;49.398;2023-09-18T12:01:18;0.78;118.99
67186;HTU21D;54116;53.518;49.398;2023-09-18T12:03:45;0.69;118.99
67186;HTU21D;54116;53.518;49.398;2023-09-18T12:06:13;0.69;118.99
67186;HTU21D;54116;53.518;49.398;2023-09-18T12:08:41;0.72;118.99
67186;HTU21D;54116;53.518;49.398;2023-09-18T12:11:08;0.81;118.99
67186;HTU21D;54116;53.518;49.398;2023-09-18T12:13:34;1.03;118.99
67186;HTU21D;54116;53.518;49.398;2023-09-18T12:16:05;0.94;118.99
67186;HTU21D;54116;53.518;49.398;2023-09-18T12:18:34;0.90;118.99
67186;HTU21D;54116;53.518;49.398;2023-09-18T12:21:06;0.99;118.99
67186;HTU21D;54116;53.518;49.398;2023-09-18T12:23:37;1.02;118.99
67186;HTU21D;54116;53.518;49.398;2023-09-18T12:26:05;1.14;118.99
67186;HTU21D;54116;53.518;49.398;2023-09-18T12:28:36;1.01;118.99
67186;HTU21D;54116;53.518;49.398;2023-09-18T12:31:03;1.03;118.99
67186;HTU21D;54116;53.518;49.398;2023-09-18T12:33:36;1.03;118.99
67186;HTU21D;54116;53.518;49.398;2023-09-18T12:36:03;0.98;118.99
67186;HTU21D;54116;53.518;49.398;2023-09-18T12:38:31;1.02;118.99
67186;HTU21D;54116;53.518;49.398;2023-09-18T12:40:59;0.98;118.99
67186;HTU21D;54116;53.518;49.398;2023-09-18T12:43:39;1.07;118.99
67186;HTU21D;54116;53.518;49.398;2023-09-18T12:46:08;0.93;118.99
67186;HTU21D;54116;53.518;49.398;2023-09-18T12:48:38;0.91;118.99
67186;HTU21D;54116;53.518;49.398;2023-09-18T12:51:11;0.91;118.99
67186;HTU21D;54116;53.518;49.398;2023-09-18T12:53:37;0.84;118.99
67186;HTU21D;54116;53.518;49.398;2023-09-18T12:56:09;0.82;118.99
67186;HTU21D;54116;53.518;49.398;2023-09-18T12:58:36;0.78;118.99
67186;HTU21D;54116;53.518;49.398;2023-09-18T13:01:05;0.66;118.99
67186;HTU21D;54116;53.518;49.398;2023-09-18T13:03:41;0.72;118.99
67186;HTU21D;54116;53.518;49.398;2023-09-18T13:06:16;0.82;118.99
67186;HTU21D;54116;53.518;49.398;2023-09-18T13:08:49;0.76;118.99
67186;HTU21D;54116;53.518;49.398;2023-09-18T13:11:22;0.63;118.99
67186;HTU21D;54116;53.518;49.398;2023-09-18T13:13:57;0.55;118.99
67186;HTU21D;54116;53.518;49.398;2023-09-18T13:16:24;0.43;118.99
67186;HTU21D;54116;53.518;49.398;2023-09-18T13:18:52;0.27;118.99
67186;HTU21D;54116;53.518;49.398;2023-09-18T13:21:19;0.06;118.99
67186;HTU21D;54116;53.518;49.398;2023-09-18T13:23:46;-0.03;118.99
67186;HTU21D;54116;53.518;49.398;2023-09-18T13:26:12;-0.00;118.99
67186;HTU21D;54116;53.518;49.398;2023-09-18T13:28:38;-0.28;118.99
67186;HTU21D;54116;53.518;49.398;2023-09-18T13:31:06;-0.27;118.99
67186;HTU21D;54116;53.518;49.398;2023-09-18T13:33:38;-0.36;118.99
67186;HTU21D;54116;53.518;49.398;2023-09-18T13:36:05;-0.45;118.99
67186;HTU21D;54116;53.518;49.398;2023-09-18T13:38:32;-0.49;118.99
67186;HTU21D;54116;53.518;49.398;2023-09-18T13:40:58;-0.39;118.99
67186;HTU21D;54116;53.518;49.398;2023-09-18T13:43:25;-0.50;118.99
67186;HTU21D;54116;53.518;49.398;2023-09-18T13:45:54;-0.60;118.99
67186;HTU21D;54116;53.518;49.398;2023-09-18T13:48:22;-0.58;118.99
67186;HTU21D;54116;53.518;49.398;2023-09-18T13:50:49;-0.72;118.99
67186;HTU21D;54116;53.518;49.398;2023-09-18T13:53:17;-0.75;118.99
67186;HTU21D;54116;53.518;49.398;2023-09-18T13:55:43;-0.83;118.99
67186;HTU21D;54116;53.518;49.398;2023-09-18T13:58:09;-0.84;118.99
67186;HTU21D;54116;53.518;49.398;2023-09-18T14:00:36;-0.99;118.99
67186;HTU21D;54116;53.518;49.398;2023-09-18T14:03:04;-1.06;118.99
67186;HTU21D;54116;53.518;49.398;2023-09-18T14:05:31;-1.05;118.99
67186;HTU21D;54116;53.518;49.398;2023-09-18T14:07:59;-1.10;118.99
67186;HTU21D;54116;53.518;49.398;2023-09-18T14:10:27;-1.35;118.99
67186;HTU21D;54116;53.518;49.398;2023-09-18T14:12:56;-1.47;118.99
67186;HTU21D;54116;53.518;49.398;2023-09-18T14:15:23;-1.50;118.99
67186;HTU21D;54116;53.518;49.398;2023-09-18T14:17:50;-1.63;118.99
67186;HTU21D;54116;53.518;49.398;2023-09-18T14:20:16;-1.72;118.99
67186;HTU21D;54116;53.518;49.398;2023-09-18T14:22:45;-1.77;118.99
67186;HTU21D;54116;53.518;49.398;2023-09-18T14:25:15;-1.94;118.99
67186;HTU21D;54116;53.518;49.398;2023-09-18T14:27:42;-2.01;118.99
67186;HTU21D;54116;53.518;49.398;2023-09-18T14:30:09;-2.09;118.99
67186;HTU21D;54116;53.518;49.398;2023-09-18T14:32:35;-2.18;118.99
67186;HTU21D;54116;53.518;49.398;2023-09-18T14:35:03;-2.21;118.99
67186;HTU21D;54116;53.518;49.398;2023-09-18T14:37:34;-2.20;118.99
67186;HTU21D;54116;53.518;49.398;2023-09-18T14:40:00;-2.21;118.99
67186;HTU21D;54116;53.518;49.398;2023-09-18T14:42:27;-2.31;118.99
67186;HTU21D;54116;53.518;49.398;2023-09-18T14:44:53;-2.46;118.99
67186;HTU21D;54116;53.518;49.398;2023-09-18T14:47:20;-2.51;118.99
67186;HTU21D;54116;53.518;49.398;2023-09-18T14:49:47;-2.56;118.99
67186;HTU21D;54116;53.518;49.398;2023-09-18T14:52:14;-2.58;118.99
67186;HTU21D;54116;53.518;49.398;2023-09-18T14:54:43;-2.61;118.99
67186;HTU21D;54116;53.518;49.398;2023-09-18T14:57:09;-2.71;118.99
67186;HTU21D;54116;53.518;49.398;2023-09-18T14:59:36;-2.76;118.99
67186;HTU21D;54116;53.518;49.398;2023-09-18T15:02:04;-2.84;118.99
67186;HTU21D;54116;53.518;49.398;2023-09-18T15:04:32;-2.93;118.99
67186;HTU21D;54116;53.518;49.398;2023-09-18T15:06:59;-2.90;118.99
67186;HTU21D;54116;53.518;49.398;2023-09-18T15:09:26;-2.90;118.99
67186;HTU21D;54116;53.518;49.398;2023-09-18T15:11:53;-3.11;118.99
67186;HTU21D;54116;53.518;49.398;2023-09-18T15:14:19;-3.17;118.99